createdAt,value
2023-02-14T06:19:02.793Z,1026.38
2023-02-14T06:29:02.702Z,1026.23
2023-02-14T06:39:02.692Z,1026.29
2023-02-14T06:49:02.861Z,1026.34
2023-02-14T06:59:02.914Z,1026.32
2023-02-14T07:09:02.982Z,1026.31
2023-02-14T07:19:02.850Z,1026.34
2023-02-14T07:29:02.893Z,1026.33
2023-02-14T07:39:02.981Z,1026.30
2023-02-14T07:49:02.779Z,1026.16
2023-02-14T07:59:02.920Z,1025.97
2023-02-14T08:09:02.736Z,1025.96
2023-02-14T08:19:02.841Z,1025.87
2023-02-14T08:29:02.871Z,1025.89
2023-02-14T08:39:03.011Z,1025.79
2023-02-14T08:49:03.175Z,1025.65
2023-02-14T08:59:03.899Z,1025.68
2023-02-14T09:09:03.267Z,1025.68
2023-02-14T09:19:03.465Z,1025.49
2023-02-14T09:29:03.299Z,1025.39
2023-02-14T09:39:03.267Z,1025.41
2023-02-14T09:49:03.424Z,1025.19
2023-02-14T09:59:03.278Z,1025.33
2023-02-14T10:09:03.363Z,1025.45
2023-02-14T10:19:03.384Z,1025.82
2023-02-14T10:29:03.275Z,1026.17
2023-02-14T10:39:03.332Z,1026.57
2023-02-14T10:49:03.297Z,1026.94
2023-02-14T10:59:03.263Z,1027.30
2023-02-14T11:09:03.483Z,1027.38
2023-02-14T11:19:03.459Z,1027.63
2023-02-14T11:29:03.486Z,1027.59
2023-02-14T11:39:03.407Z,1027.59
2023-02-14T11:49:03.409Z,1027.49
2023-02-14T11:59:03.505Z,1027.39
2023-02-14T12:09:03.386Z,1027.21
2023-02-14T12:19:03.388Z,1027.04
2023-02-14T12:29:03.420Z,1026.90
2023-02-14T12:39:03.295Z,1026.69
2023-02-14T12:49:03.531Z,1026.58
2023-02-14T12:59:03.528Z,1026.49
2023-02-14T13:09:03.522Z,1026.41
2023-02-14T13:19:03.575Z,1026.31
2023-02-14T13:29:03.677Z,1026.18
2023-02-14T13:39:03.659Z,1026.05
2023-02-14T13:49:03.518Z,1025.93
2023-02-14T13:59:03.653Z,1025.81
2023-02-14T14:09:03.572Z,1025.76
2023-02-14T14:19:03.843Z,1025.73
2023-02-14T14:29:03.624Z,1025.80
2023-02-14T14:39:03.575Z,1025.64
2023-02-14T14:49:03.642Z,1025.63
2023-02-14T14:59:03.723Z,1025.50
2023-02-14T15:09:03.744Z,1025.47
2023-02-14T15:19:03.665Z,1025.34
2023-02-14T15:29:03.712Z,1025.32
2023-02-14T15:39:03.586Z,1025.19
2023-02-14T15:49:03.709Z,1025.18
2023-02-14T15:59:03.612Z,1025.19
2023-02-14T16:09:03.703Z,1025.26
2023-02-14T16:19:03.626Z,1025.33
2023-02-14T16:29:03.743Z,1025.35
2023-02-14T16:39:03.654Z,1025.34
2023-02-14T16:49:03.745Z,1025.32
2023-02-14T16:59:03.804Z,1025.35
2023-02-14T17:09:03.637Z,1025.40
2023-02-14T17:19:03.778Z,1025.30
2023-02-14T17:29:03.570Z,1025.37
2023-02-14T17:39:03.713Z,1025.37
2023-02-14T17:49:03.882Z,1025.31
2023-02-14T17:59:03.902Z,1025.27
2023-02-14T18:09:03.734Z,1025.09
2023-02-14T18:19:03.891Z,1024.93
2023-02-14T18:29:03.938Z,1024.88
2023-02-14T18:39:03.868Z,1024.71
2023-02-14T18:49:03.827Z,1024.55
2023-02-14T18:59:03.944Z,1024.42
2023-02-14T19:09:03.873Z,1024.31
2023-02-14T19:19:03.844Z,1024.14
